createdAt,value
2019-01-27T00:02:10.074Z,6.70
2019-01-27T00:04:38.665Z,7.37
2019-01-27T00:07:07.370Z,7.13
2019-01-27T00:09:36.405Z,7.50
2019-01-27T00:12:05.122Z,7.27
2019-01-27T00:14:33.698Z,7.17
2019-01-27T00:17:02.510Z,8.03
2019-01-27T00:19:31.167Z,7.80
2019-01-27T00:21:59.823Z,8.37
2019-01-27T00:24:28.393Z,8.37
2019-01-27T00:26:56.985Z,9.13
2019-01-27T00:29:25.631Z,9.87
2019-01-27T00:31:54.213Z,9.10
2019-01-27T00:34:22.799Z,8.93
2019-01-27T00:36:51.370Z,8.23
2019-01-27T00:39:19.954Z,8.70
2019-01-27T00:41:48.774Z,8.53
2019-01-27T00:44:17.353Z,8.27
2019-01-27T00:46:45.999Z,8.57
2019-01-27T00:49:14.578Z,9.00
2019-01-27T00:51:43.149Z,8.73
2019-01-27T00:54:11.749Z,8.60
2019-01-27T00:56:40.322Z,8.57
2019-01-27T00:59:09.047Z,8.77
2019-01-27T01:01:37.718Z,8.50
2019-01-27T01:04:06.632Z,7.77
2019-01-27T01:06:35.209Z,8.23
2019-01-27T01:09:05.593Z,7.90
2019-01-27T01:11:34.422Z,8.70
2019-01-27T01:14:03.134Z,8.07
2019-01-27T01:16:31.786Z,7.30
2019-01-27T01:19:00.360Z,7.17
2019-01-27T01:21:29.205Z,7.27
2019-01-27T01:23:57.846Z,7.83
2019-01-27T01:26:26.486Z,7.00
2019-01-27T01:28:55.134Z,7.40
2019-01-27T01:31:23.709Z,7.07
2019-01-27T01:33:52.354Z,7.20
2019-01-27T01:36:21.090Z,7.33
2019-01-27T01:38:49.669Z,7.50
2019-01-27T01:41:18.382Z,6.53
2019-01-27T01:43:47.045Z,8.07
2019-01-27T01:46:15.650Z,7.40
2019-01-27T01:48:44.233Z,6.70
2019-01-27T01:51:12.817Z,8.13
2019-01-27T01:53:41.453Z,6.60
2019-01-27T01:56:10.106Z,6.67
2019-01-27T01:58:38.679Z,6.60
2019-01-27T02:01:07.514Z,7.03
2019-01-27T02:03:36.138Z,6.50
2019-01-27T02:06:05.496Z,6.60
2019-01-27T02:08:34.075Z,7.30
2019-01-27T02:11:02.710Z,6.80
2019-01-27T02:13:31.366Z,6.53
2019-01-27T02:16:02.614Z,7.50
2019-01-27T02:18:31.434Z,7.03
2019-01-27T02:21:00.146Z,7.90
2019-01-27T02:23:28.980Z,7.47
2019-01-27T02:25:57.686Z,7.53
2019-01-27T02:28:26.334Z,7.70
2019-01-27T02:30:55.045Z,7.87
2019-01-27T02:33:23.745Z,8.33
2019-01-27T02:35:52.402Z,7.07
2019-01-27T02:38:21.113Z,8.97
2019-01-27T02:40:49.836Z,7.53
2019-01-27T02:43:18.611Z,5.73
2019-01-27T02:45:47.265Z,8.20
2019-01-27T02:48:15.914Z,7.40
2019-01-27T02:50:44.502Z,7.33
2019-01-27T02:53:13.210Z,7.77
2019-01-27T02:55:41.875Z,7.40
2019-01-27T02:58:10.517Z,7.63
2019-01-27T03:00:39.110Z,8.73
2019-01-27T03:03:07.830Z,8.37
2019-01-27T03:05:53.517Z,8.00
2019-01-27T03:08:22.233Z,8.47
2019-01-27T03:10:50.873Z,8.50
2019-01-27T03:13:19.594Z,8.53
2019-01-27T03:15:48.171Z,7.87
2019-01-27T03:18:16.830Z,8.87
2019-01-27T03:20:45.559Z,8.50
2019-01-27T03:23:14.209Z,8.50
2019-01-27T03:25:42.793Z,8.13
2019-01-27T03:28:11.434Z,7.93
2019-01-27T03:30:40.255Z,8.20
2019-01-27T03:33:08.890Z,8.27
2019-01-27T03:35:37.545Z,8.47
2019-01-27T03:38:06.359Z,7.80
2019-01-27T03:40:35.069Z,7.93
2019-01-27T03:43:03.670Z,8.93
2019-01-27T03:45:32.331Z,8.30
2019-01-27T03:48:01.086Z,7.87
2019-01-27T03:50:29.741Z,7.80
2019-01-27T03:52:58.317Z,8.43
2019-01-27T03:55:29.701Z,8.43
2019-01-27T03:57:58.427Z,8.87
2019-01-27T04:00:27.837Z,8.27
2019-01-27T04:02:56.413Z,7.97
2019-01-27T04:05:25.127Z,8.40
2019-01-27T04:07:53.793Z,8.63
2019-01-27T04:10:24.212Z,9.57
2019-01-27T04:12:52.778Z,9.33
2019-01-27T04:15:21.604Z,9.50
2019-01-27T04:17:50.462Z,9.80
2019-01-27T04:20:22.562Z,10.07
2019-01-27T04:22:51.673Z,9.87
2019-01-27T04:25:20.498Z,10.40
2019-01-27T04:27:49.213Z,9.47
2019-01-27T04:30:25.146Z,9.37
2019-01-27T04:32:53.963Z,10.97
2019-01-27T04:35:22.729Z,10.07
2019-01-27T04:37:51.447Z,10.23
2019-01-27T04:40:23.962Z,10.33
2019-01-27T04:42:52.654Z,10.20
2019-01-27T04:45:23.002Z,10.47
2019-01-27T04:47:51.722Z,9.73
2019-01-27T04:50:20.370Z,9.47
2019-01-27T04:52:49.014Z,9.37
2019-01-27T04:55:21.106Z,9.33
2019-01-27T04:57:49.765Z,9.43
2019-01-27T05:00:23.744Z,10.50
2019-01-27T05:02:54.305Z,8.43
2019-01-27T05:05:22.965Z,8.77
2019-01-27T05:07:51.608Z,9.07
2019-01-27T05:10:20.264Z,8.93
2019-01-27T05:12:48.840Z,9.43
2019-01-27T05:15:20.902Z,10.00
2019-01-27T05:17:49.481Z,10.07
2019-01-27T05:20:18.138Z,9.77
2019-01-27T05:22:46.791Z,9.17
2019-01-27T05:25:16.941Z,9.20
2019-01-27T05:27:45.562Z,10.67
2019-01-27T05:30:19.803Z,9.50
2019-01-27T05:32:48.555Z,10.27
2019-01-27T05:35:17.190Z,9.83
2019-01-27T05:37:46.021Z,10.20
2019-01-27T05:40:16.738Z,10.00
2019-01-27T05:42:45.465Z,10.60
2019-01-27T05:45:17.110Z,10.47
2019-01-27T05:47:45.789Z,10.93
2019-01-27T05:50:15.798Z,10.47
2019-01-27T05:52:44.514Z,10.23
2019-01-27T05:55:17.982Z,10.27
2019-01-27T05:57:46.630Z,10.17
2019-01-27T06:00:22.406Z,11.93
2019-01-27T06:02:51.056Z,10.23
2019-01-27T06:05:19.778Z,10.40
2019-01-27T06:07:48.354Z,10.97
2019-01-27T06:10:17.478Z,11.47
2019-01-27T06:12:46.131Z,10.57
2019-01-27T06:15:19.096Z,10.40
2019-01-27T06:17:47.750Z,10.43
2019-01-27T06:20:17.823Z,10.80
2019-01-27T06:22:46.533Z,11.00
2019-01-27T06:25:19.677Z,9.07
2019-01-27T06:27:48.365Z,9.63
2019-01-27T06:30:22.835Z,9.80
2019-01-27T06:32:53.205Z,11.33
2019-01-27T06:35:21.770Z,10.67
2019-01-27T06:37:50.366Z,10.13
2019-01-27T06:40:18.950Z,10.47
2019-01-27T06:42:47.521Z,9.90
2019-01-27T06:45:16.258Z,11.87
2019-01-27T06:47:44.914Z,10.07
2019-01-27T06:50:14.337Z,10.90
2019-01-27T06:52:43.594Z,10.47
2019-01-27T06:55:17.862Z,11.30
2019-01-27T06:57:46.573Z,10.97
2019-01-27T07:00:28.445Z,11.23
2019-01-27T07:02:58.675Z,11.67
2019-01-27T07:05:28.885Z,11.13
2019-01-27T07:08:11.178Z,11.20
2019-01-27T07:10:41.467Z,11.37
2019-01-27T07:13:14.414Z,11.47
2019-01-27T07:15:56.842Z,10.43
2019-01-27T07:18:36.078Z,11.20
2019-01-27T07:21:06.646Z,10.37
2019-01-27T07:23:46.174Z,11.33
2019-01-27T07:26:34.677Z,10.67
2019-01-27T07:29:21.350Z,10.17
2019-01-27T07:31:54.516Z,11.97
2019-01-27T07:34:33.848Z,10.90
2019-01-27T07:37:20.074Z,11.67
2019-01-27T07:40:07.015Z,10.23
2019-01-27T07:42:43.057Z,10.90
2019-01-27T07:45:24.078Z,10.03
2019-01-27T07:47:54.478Z,8.57
2019-01-27T07:50:27.473Z,10.23
2019-01-27T07:53:06.638Z,9.80
2019-01-27T07:55:42.553Z,10.17
2019-01-27T07:58:12.791Z,10.27
2019-01-27T08:00:43.167Z,10.97
2019-01-27T08:03:31.723Z,16.30
2019-01-27T08:06:04.578Z,11.00
2019-01-27T08:08:34.798Z,10.97
2019-01-27T08:11:11.129Z,10.43
2019-01-27T08:13:57.752Z,10.80
2019-01-27T08:16:28.164Z,9.77
2019-01-27T08:18:58.378Z,10.77
2019-01-27T08:21:31.889Z,10.00
2019-01-27T08:24:11.425Z,10.40
2019-01-27T08:26:57.106Z,9.87
2019-01-27T08:29:43.885Z,10.07
2019-01-27T08:32:14.486Z,9.67
2019-01-27T08:34:44.706Z,10.30
2019-01-27T08:37:14.922Z,8.17
2019-01-27T08:39:45.148Z,9.90
2019-01-27T08:42:15.434Z,10.00
2019-01-27T08:44:45.676Z,10.07
2019-01-27T08:47:14.386Z,10.30
2019-01-27T08:49:43.446Z,9.37
2019-01-27T08:52:12.024Z,9.73
2019-01-27T08:54:40.590Z,9.60
2019-01-27T08:57:09.176Z,9.27
2019-01-27T08:59:37.814Z,8.77
2019-01-27T09:02:11.650Z,8.70
2019-01-27T09:04:41.874Z,8.57
2019-01-27T09:07:15.114Z,9.00
2019-01-27T09:09:45.327Z,8.80
2019-01-27T09:12:18.417Z,8.07
2019-01-27T09:14:51.546Z,8.20
2019-01-27T09:17:37.126Z,7.87
2019-01-27T09:20:10.439Z,7.27
2019-01-27T09:22:43.457Z,7.80
2019-01-27T09:25:14.106Z,7.37
2019-01-27T09:27:59.571Z,9.95
2019-01-27T09:30:32.813Z,8.67
2019-01-27T09:33:03.029Z,7.60
2019-01-27T09:35:49.857Z,7.27
2019-01-27T09:38:20.134Z,7.03
2019-01-27T09:40:50.424Z,7.23
2019-01-27T09:43:20.769Z,6.10
2019-01-27T09:46:05.144Z,7.00
2019-01-27T09:48:44.053Z,6.93
2019-01-27T09:51:14.283Z,6.87
2019-01-27T09:53:44.494Z,6.40
2019-01-27T09:56:17.958Z,7.07
2019-01-27T09:59:04.478Z,7.63
2019-01-27T10:01:34.734Z,6.87
2019-01-27T10:04:23.450Z,6.53
2019-01-27T10:06:53.777Z,7.50
2019-01-27T10:09:36.057Z,7.50
2019-01-27T10:12:16.246Z,6.33
2019-01-27T10:15:02.931Z,6.60
2019-01-27T10:17:49.346Z,6.93
2019-01-27T10:20:21.244Z,6.83
2019-01-27T10:23:07.733Z,6.87
2019-01-27T10:25:44.102Z,6.47
2019-01-27T10:28:14.334Z,7.07
2019-01-27T10:30:47.407Z,6.63
2019-01-27T10:33:33.045Z,7.97
2019-01-27T10:36:07.568Z,7.20
2019-01-27T10:38:38.111Z,7.67
2019-01-27T10:41:14.330Z,7.67
2019-01-27T10:43:50.406Z,7.97
2019-01-27T10:46:32.822Z,7.20
2019-01-27T10:49:14.952Z,6.63
2019-01-27T10:51:45.166Z,7.60
2019-01-27T10:54:18.017Z,7.07
2019-01-27T10:56:49.702Z,7.57
2019-01-27T10:59:29.074Z,7.53
2019-01-27T11:01:59.295Z,7.00
2019-01-27T11:04:35.486Z,7.77
2019-01-27T11:07:05.928Z,6.93
2019-01-27T11:09:52.471Z,7.30
2019-01-27T11:12:28.598Z,6.90
2019-01-27T11:15:04.507Z,7.77
2019-01-27T11:17:43.871Z,7.43
2019-01-27T11:20:21.845Z,9.70
2019-01-27T11:23:12.762Z,10.43
2019-01-27T11:25:46.146Z,9.10
2019-01-27T11:28:32.626Z,8.73
2019-01-27T11:31:12.082Z,10.87
2019-01-27T11:33:45.061Z,7.50
2019-01-27T11:36:18.482Z,8.33
2019-01-27T11:38:51.691Z,8.33
2019-01-27T11:41:21.975Z,7.50
2019-01-27T11:43:57.777Z,7.23
2019-01-27T11:46:31.134Z,7.07
2019-01-27T11:49:13.826Z,6.63
2019-01-27T11:51:43.303Z,6.90
2019-01-27T11:54:11.950Z,6.40
2019-01-27T11:56:40.671Z,8.03
2019-01-27T11:59:09.501Z,7.97
2019-01-27T12:01:39.572Z,7.43
2019-01-27T12:04:08.193Z,7.43
2019-01-27T12:06:36.899Z,7.77
2019-01-27T12:09:07.122Z,7.37
2019-01-27T12:11:35.834Z,6.50
2019-01-27T12:14:05.314Z,7.30
2019-01-27T12:16:33.882Z,6.83
2019-01-27T12:19:02.525Z,7.23
2019-01-27T12:21:31.209Z,7.40
2019-01-27T12:23:59.854Z,8.10
2019-01-27T12:26:28.798Z,8.50
2019-01-27T12:28:57.374Z,7.70
2019-01-27T12:31:25.951Z,8.40
2019-01-27T12:33:54.678Z,9.53
2019-01-27T12:36:23.257Z,6.93
2019-01-27T12:38:51.880Z,10.40
2019-01-27T12:41:20.525Z,7.37
2019-01-27T12:43:49.093Z,8.23
2019-01-27T12:46:17.678Z,7.30
2019-01-27T12:48:46.249Z,8.40
2019-01-27T12:51:15.013Z,9.00
2019-01-27T12:53:43.721Z,7.53
2019-01-27T12:56:12.374Z,7.73
2019-01-27T12:58:41.061Z,8.07
2019-01-27T13:01:09.697Z,7.97
2019-01-27T13:03:38.318Z,7.30
2019-01-27T13:06:07.122Z,8.07
2019-01-27T13:08:35.694Z,7.03
2019-01-27T13:11:05.818Z,7.63
2019-01-27T13:13:34.666Z,6.93
2019-01-27T13:16:03.537Z,7.30
2019-01-27T13:18:32.247Z,6.13
2019-01-27T13:21:00.910Z,6.97
2019-01-27T13:23:29.493Z,6.90
2019-01-27T13:25:58.138Z,6.63
2019-01-27T13:28:26.821Z,8.00
2019-01-27T13:30:55.546Z,7.43
2019-01-27T13:33:24.122Z,6.97
2019-01-27T13:35:52.777Z,6.07
2019-01-27T13:38:21.420Z,7.13
2019-01-27T13:40:50.113Z,7.57
2019-01-27T13:43:18.831Z,8.38
2019-01-27T13:45:47.398Z,7.63
2019-01-27T13:48:16.085Z,6.90
2019-01-27T13:50:44.766Z,9.23
2019-01-27T13:53:13.398Z,10.20
2019-01-27T13:55:41.966Z,7.63
2019-01-27T13:58:10.782Z,6.97
2019-01-27T14:00:41.402Z,7.53
2019-01-27T14:03:10.118Z,12.83
2019-01-27T14:05:38.878Z,8.10
2019-01-27T14:08:07.589Z,7.63
2019-01-27T14:10:36.513Z,11.77
2019-01-27T14:13:05.469Z,7.50
2019-01-27T14:15:38.994Z,7.93
2019-01-27T14:18:08.414Z,8.97
2019-01-27T14:20:37.233Z,8.00
2019-01-27T14:23:06.046Z,8.77
2019-01-27T14:25:34.762Z,8.47
2019-01-27T14:28:03.877Z,8.83
2019-01-27T14:30:35.509Z,8.43
2019-01-27T14:33:04.353Z,8.83
2019-01-27T14:35:33.063Z,9.17
2019-01-27T14:38:01.793Z,8.27
2019-01-27T14:40:31.306Z,9.73
2019-01-27T14:43:00.906Z,9.10
2019-01-27T14:45:31.741Z,9.40
2019-01-27T14:48:01.050Z,8.80
2019-01-27T14:50:35.740Z,9.47
2019-01-27T14:53:05.450Z,9.60
2019-01-27T14:55:34.186Z,9.63
2019-01-27T14:58:02.923Z,9.60
2019-01-27T15:00:37.307Z,9.77
2019-01-27T15:03:07.114Z,9.57
2019-01-27T15:05:35.854Z,10.30
2019-01-27T15:08:05.493Z,9.23
2019-01-27T15:10:34.203Z,10.07
2019-01-27T15:13:02.958Z,10.63
2019-01-27T15:15:31.672Z,11.00
2019-01-27T15:18:00.327Z,11.27
2019-01-27T15:20:37.507Z,11.27
2019-01-27T15:23:06.230Z,11.43
2019-01-27T15:25:35.033Z,11.97
2019-01-27T15:28:03.623Z,11.53
2019-01-27T15:30:34.337Z,10.63
2019-01-27T15:33:03.094Z,12.63
2019-01-27T15:35:31.851Z,14.97
2019-01-27T15:38:00.427Z,11.70
2019-01-27T15:40:29.058Z,11.43
2019-01-27T15:42:57.633Z,12.33
2019-01-27T15:45:30.995Z,10.73
2019-01-27T15:47:59.581Z,12.17
2019-01-27T15:50:35.839Z,15.40
2019-01-27T15:53:06.160Z,12.30
2019-01-27T15:55:37.539Z,12.30
2019-01-27T15:58:06.574Z,11.70
2019-01-27T16:00:35.269Z,12.67
2019-01-27T16:03:04.144Z,12.37
2019-01-27T16:05:32.715Z,12.40
2019-01-27T16:08:01.439Z,11.77
2019-01-27T16:10:30.157Z,12.50
2019-01-27T16:12:58.926Z,13.20
2019-01-27T16:15:35.504Z,12.47
2019-01-27T16:18:04.899Z,11.87
2019-01-27T16:20:33.610Z,10.67
2019-01-27T16:23:21.930Z,14.40
2019-01-27T16:25:50.642Z,12.23
2019-01-27T16:28:19.286Z,12.43
2019-01-27T16:30:58.227Z,14.17
2019-01-27T16:33:45.109Z,14.40
2019-01-27T16:36:13.698Z,14.43
2019-01-27T16:39:01.622Z,13.70
2019-01-27T16:41:30.282Z,13.60
2019-01-27T16:43:58.925Z,14.47
2019-01-27T16:46:27.514Z,12.60
2019-01-27T16:48:56.230Z,11.90
2019-01-27T16:51:24.906Z,12.73
2019-01-27T16:53:53.550Z,11.07
2019-01-27T16:56:22.198Z,11.70
2019-01-27T16:58:50.922Z,11.47
2019-01-27T17:01:19.638Z,10.83
2019-01-27T17:03:48.294Z,12.80
2019-01-27T17:06:16.944Z,13.00
2019-01-27T17:08:45.830Z,13.43
2019-01-27T17:11:14.638Z,12.17
2019-01-27T17:13:43.262Z,12.73
2019-01-27T17:16:11.995Z,14.13
2019-01-27T17:18:40.949Z,11.33
2019-01-27T17:21:09.514Z,12.87
2019-01-27T17:23:38.341Z,12.83
2019-01-27T17:26:06.922Z,12.70
2019-01-27T17:28:35.710Z,12.27
2019-01-27T17:31:04.634Z,12.10
2019-01-27T17:33:33.274Z,12.10
2019-01-27T17:36:01.930Z,13.13
2019-01-27T17:38:30.649Z,12.90
2019-01-27T17:40:59.567Z,12.57
2019-01-27T17:43:28.126Z,12.13
2019-01-27T17:45:56.810Z,12.57
2019-01-27T17:48:25.446Z,11.50
2019-01-27T17:50:54.017Z,11.47
2019-01-27T17:53:22.697Z,11.17
2019-01-27T17:55:51.346Z,8.67
2019-01-27T17:58:36.762Z,9.53
2019-01-27T18:01:19.639Z,9.33
2019-01-27T18:03:55.464Z,10.13
2019-01-27T18:06:25.741Z,9.20
2019-01-27T18:09:01.967Z,10.83
2019-01-27T18:11:34.908Z,11.20
2019-01-27T18:14:05.199Z,10.63
2019-01-27T18:16:33.854Z,10.07
2019-01-27T18:19:02.429Z,10.93
2019-01-27T18:21:31.117Z,12.77
2019-01-27T18:23:59.690Z,10.47
2019-01-27T18:26:28.336Z,10.60
2019-01-27T18:28:56.922Z,10.60
2019-01-27T18:31:25.569Z,9.67
2019-01-27T18:33:54.152Z,10.93
2019-01-27T18:36:22.958Z,9.73
2019-01-27T18:38:51.692Z,10.80
2019-01-27T18:41:20.330Z,10.53
2019-01-27T18:43:49.134Z,10.17
2019-01-27T18:46:17.957Z,12.23
2019-01-27T18:48:46.594Z,9.83
2019-01-27T18:51:15.491Z,10.90
2019-01-27T18:53:45.843Z,10.50
2019-01-27T18:56:16.238Z,9.30
2019-01-27T18:58:49.510Z,9.63
2019-01-27T19:01:22.944Z,9.77
2019-01-27T19:03:56.094Z,10.23
2019-01-27T19:06:26.381Z,10.13
2019-01-27T19:09:05.433Z,9.70
2019-01-27T19:11:41.485Z,9.67
2019-01-27T19:14:17.659Z,9.33
2019-01-27T19:16:50.903Z,11.03
2019-01-27T19:19:21.338Z,11.27
2019-01-27T19:21:51.550Z,12.20
2019-01-27T19:24:24.522Z,10.63
2019-01-27T19:26:54.879Z,10.97
2019-01-27T19:29:31.382Z,12.13
2019-01-27T19:32:01.697Z,12.03
2019-01-27T19:34:41.333Z,13.13
2019-01-27T19:37:14.563Z,11.67
2019-01-27T19:39:44.803Z,10.93
2019-01-27T19:42:15.014Z,12.43
2019-01-27T19:44:47.994Z,11.60
2019-01-27T19:47:27.222Z,11.13
2019-01-27T19:50:00.394Z,12.17
2019-01-27T19:52:30.737Z,12.83
2019-01-27T19:55:19.255Z,11.90
2019-01-27T19:57:49.642Z,12.23
2019-01-27T20:00:20.014Z,11.20
2019-01-27T20:02:55.993Z,11.70
2019-01-27T20:05:44.430Z,11.70
2019-01-27T20:08:23.407Z,11.53
2019-01-27T20:10:56.626Z,10.57
2019-01-27T20:13:32.834Z,11.57
2019-01-27T20:16:19.928Z,12.10
2019-01-27T20:19:02.186Z,11.77
2019-01-27T20:21:32.730Z,11.40
2019-01-27T20:24:19.165Z,11.13
2019-01-27T20:26:54.998Z,12.23
2019-01-27T20:29:41.481Z,11.27
2019-01-27T20:32:17.608Z,10.80
2019-01-27T20:34:50.534Z,10.27
2019-01-27T20:37:20.927Z,11.70
2019-01-27T20:39:51.146Z,10.40
2019-01-27T20:42:24.526Z,10.93
2019-01-27T20:44:57.666Z,11.17
2019-01-27T20:47:27.882Z,10.47
2019-01-27T20:50:10.143Z,11.00
2019-01-27T20:52:56.931Z,11.77
2019-01-27T20:55:30.113Z,11.43
2019-01-27T20:58:03.103Z,11.37
2019-01-27T21:00:36.285Z,10.73
2019-01-27T21:03:06.978Z,9.63
2019-01-27T21:05:37.206Z,10.50
2019-01-27T21:08:10.760Z,10.40
2019-01-27T21:10:57.397Z,10.83
2019-01-27T21:13:30.291Z,10.60
2019-01-27T21:16:05.994Z,10.37
2019-01-27T21:18:36.212Z,11.03
2019-01-27T21:21:05.018Z,9.53
2019-01-27T21:23:33.665Z,9.73
2019-01-27T21:26:02.321Z,10.90
2019-01-27T21:28:30.897Z,9.23
2019-01-27T21:30:59.482Z,11.40
2019-01-27T21:33:28.081Z,10.43
2019-01-27T21:35:56.718Z,10.17
2019-01-27T21:38:25.522Z,11.07
2019-01-27T21:40:54.162Z,9.50
2019-01-27T21:43:22.738Z,9.70
2019-01-27T21:45:51.391Z,9.70
2019-01-27T21:48:20.118Z,9.77
2019-01-27T21:50:48.718Z,10.43
2019-01-27T21:53:17.284Z,9.47
2019-01-27T21:55:45.958Z,9.97
2019-01-27T21:58:14.526Z,9.90
2019-01-27T22:00:43.266Z,9.50
2019-01-27T22:03:12.042Z,9.30
2019-01-27T22:05:40.594Z,9.90
2019-01-27T22:08:09.322Z,9.60
2019-01-27T22:10:37.918Z,9.67
2019-01-27T22:13:06.506Z,10.87
2019-01-27T22:15:35.220Z,10.20
2019-01-27T22:18:04.574Z,10.37
2019-01-27T22:20:33.148Z,10.17
2019-01-27T22:23:01.822Z,10.53
2019-01-27T22:25:30.446Z,9.47
2019-01-27T22:27:59.102Z,9.50
2019-01-27T22:30:27.765Z,10.67
2019-01-27T22:32:56.342Z,11.37
2019-01-27T22:35:44.335Z,10.63
2019-01-27T22:38:12.910Z,11.63
2019-01-27T22:40:41.499Z,10.73
2019-01-27T22:43:10.075Z,10.17
2019-01-27T22:45:38.664Z,11.50
2019-01-27T22:48:07.238Z,10.23
2019-01-27T22:50:35.834Z,10.57
2019-01-27T22:53:04.547Z,10.80
2019-01-27T22:55:33.205Z,10.83
2019-01-27T22:58:01.954Z,11.53
2019-01-27T23:00:35.246Z,10.60
2019-01-27T23:33:56.545Z,10.57
2019-01-27T23:36:25.465Z,10.80
2019-01-27T23:38:54.109Z,11.43
2019-01-27T23:41:22.765Z,11.83
2019-01-27T23:43:51.409Z,10.07
2019-01-27T23:46:19.993Z,10.20
2019-01-27T23:48:48.571Z,10.47
2019-01-27T23:51:17.338Z,11.80
2019-01-27T23:53:45.914Z,11.60
2019-01-27T23:56:14.490Z,11.37
2019-01-27T23:58:43.078Z,10.63
